Main page
METAR-TAF:

METAR-TAF

Airports :

Wick Airport

Wick, Scotland

latitude: 58-27N, longitude: 003-05W, elevation: 39 m

Current weather observation

The report was made 18 minutes ago, at 00:20 UTC
Wind 10 kt from the South/Southeast
Temperature 7°C
Humidity 100%
Pressure 1027 hPa
Visibility: 5000 m

METAR: EGPC 240020Z AUTO 16010KT 5000 OVC001/// 07/07 Q1027

Time: 01:38 (00:38 UTC)

Forecast

The report was made 14 minutes ago, at 00:24 UTC
Forecast valid from 24 at 00 UTC to 24 at 09 UTC
Wind 12 kt from the South/Southeast
Visibility 10 km or more
Few clouds at a height of 500 ft
Temporary
from 24 at 00 UTC to 24 at 07 UTC
Visibility: 4000 m
Broken clouds at a height of 100 ft
mist

TAF: EGPC 240024Z 2400/2409 15012KT 9999 FEW005 TEMPO 2400/2407 4000 BR BKN001

Weather observations and forecasts of more than 4000 airports (METAR and TAF reports).

The available stations are represented by yellow and red dots on the map.

Hover mouse over dot to see the name of the station.

Then click to see weather observations and forecasts.

To change the map : click on the green buttons with a black cross to zoom in, on the green button with a dash to zoom out, or on the green arrows for adjacent maps.


METAR-TAF: